Time;durP1;ratioP1;P1;durP2;ratioP2;P2;SDS_P1;SDS_P2;PMS_P1;PMS_P2;Temp;Humidity;BMP_temperature;BMP_pressure;BME280_temperature;BME280_humidity;BME280_pressure;Samples;Min_cycle;Max_cycle;Signal;HPM_P1;HPM_P2
2022/04/03 00:00:56;;;;;;;;;;;3.90;92.40;;;;;;5097548;28;19912;-86
2022/04/03 00:03:21;;;;;;;;;;;3.90;91.80;;;;;;5079336;28;19961;-84
2022/04/03 00:05:47;;;;;;;;;;;3.80;92.10;;;;;;5097463;28;19908;-85
2022/04/03 00:08:13;;;;;;;;;;;3.70;92.30;;;;;;5097449;28;19935;-85
2022/04/03 00:10:39;;;;;;;;;;;3.70;93.00;;;;;;5097307;28;19908;-85
2022/04/03 00:13:05;;;;;;;;;;;3.70;93.50;;;;;;5097381;28;19912;-83
2022/04/03 00:15:31;;;;;;;;;;;3.40;93.70;;;;;;5079150;28;19908;-85
2022/04/03 00:17:57;;;;;;;;;;;3.30;95.10;;;;;;5097141;28;19917;-86
2022/04/03 00:20:23;;;;;;;;;;;3.30;94.70;;;;;;5078742;28;19915;-86
2022/04/03 00:22:49;;;;;;;;;;;3.10;95.50;;;;;;5097154;28;19986;-83
2022/04/03 00:25:15;;;;;;;;;;;3.00;96.00;;;;;;5078919;28;20011;-84
2022/04/03 00:27:41;;;;;;;;;;;3.20;96.60;;;;;;5097302;28;19989;-84
2022/04/03 00:30:07;;;;;;;;;;;3.20;96.50;;;;;;5096982;28;19912;-84
2022/04/03 00:32:33;;;;;;;;;;;3.30;96.40;;;;;;5078756;28;19908;-84
2022/04/03 00:34:59;;;;;;;;;;;3.40;95.90;;;;;;5078768;28;19940;-85
2022/04/03 00:37:24;;;;;;;;;;;3.50;95.20;;;;;;5078636;28;19912;-86
2022/04/03 00:39:50;;;;;;;;;;;3.50;94.80;;;;;;5096849;28;19912;-85
2022/04/03 00:42:16;;;;;;;;;;;3.30;94.60;;;;;;5095534;28;20310;-84
2022/04/03 00:44:42;;;;;;;;;;;3.10;95.60;;;;;;5078589;28;20337;-85
2022/04/03 00:47:07;;;;;;;;;;;2.80;96.60;;;;;;5078496;28;19968;-84
2022/04/03 00:49:33;;;;;;;;;;;2.50;98.00;;;;;;5096691;28;19908;-83
2022/04/03 00:51:59;;;;;;;;;;;2.40;99.30;;;;;;5096644;28;19931;-84
2022/04/03 00:54:24;;;;;;;;;;;2.40;99.90;;;;;;5096687;28;19999;-82
2022/04/03 00:56:51;;;;;;;;;;;2.50;99.80;;;;;;5096481;28;19912;-85
2022/04/03 00:59:16;;;;;;;;;;;2.80;99.80;;;;;;5078183;28;19912;-84
2022/04/03 01:01:42;;;;;;;;;;;3.10;98.20;;;;;;5096676;28;19908;-84
2022/04/03 01:04:08;;;;;;;;;;;3.30;97.00;;;;;;5096414;28;20372;-84
2022/04/03 01:06:34;;;;;;;;;;;3.00;97.10;;;;;;5095421;28;19916;-83
2022/04/03 01:08:59;;;;;;;;;;;2.90;98.20;;;;;;5096314;28;20376;-82
2022/04/03 01:11:25;;;;;;;;;;;2.80;98.50;;;;;;5096177;28;19912;-84
2022/04/03 01:13:51;;;;;;;;;;;2.90;98.50;;;;;;5096189;28;20003;-85
2022/04/03 01:16:17;;;;;;;;;;;2.90;98.20;;;;;;5096150;28;19947;-84
2022/04/03 01:18:43;;;;;;;;;;;2.90;98.50;;;;;;5095862;28;19959;-84
2022/04/03 01:21:09;;;;;;;;;;;2.60;98.90;;;;;;5077878;28;20254;-85
2022/04/03 01:23:34;;;;;;;;;;;2.70;99.80;;;;;;5096351;28;20384;-87
2022/04/03 01:26:00;;;;;;;;;;;2.80;99.10;;;;;;5077771;28;19987;-83
2022/04/03 01:28:26;;;;;;;;;;;2.80;99.30;;;;;;5096072;28;20253;-84
2022/04/03 01:30:52;;;;;;;;;;;3.10;98.50;;;;;;5077694;28;20395;-85
2022/04/03 01:33:17;;;;;;;;;;;3.00;98.30;;;;;;5095812;28;19908;-82
2022/04/03 01:35:43;;;;;;;;;;;2.70;98.80;;;;;;5096007;28;20253;-84
2022/04/03 01:38:09;;;;;;;;;;;2.70;99.30;;;;;;5095918;28;20377;-84
2022/04/03 01:40:35;;;;;;;;;;;2.50;99.90;;;;;;5095781;28;19916;-83
2022/04/03 01:43:02;;;;;;;;;;;2.40;99.90;;;;;;5077448;28;20279;-84
2022/04/03 01:45:27;;;;;;;;;;;2.70;99.90;;;;;;5096115;28;20271;-83
2022/04/03 01:47:53;;;;;;;;;;;2.90;99.90;;;;;;5095938;28;19908;-81
2022/04/03 01:50:18;;;;;;;;;;;2.90;99.10;;;;;;5077312;28;20314;-84
2022/04/03 01:52:44;;;;;;;;;;;2.30;99.40;;;;;;5077259;28;19908;-85
2022/04/03 01:55:10;;;;;;;;;;;1.80;99.90;;;;;;5077157;28;19908;-83
2022/04/03 01:57:36;;;;;;;;;;;1.70;99.90;;;;;;5095451;28;20006;-84
2022/04/03 02:00:05;;;;;;;;;;;1.70;99.90;;;;;;5095219;28;19912;-83
2022/04/03 02:02:32;;;;;;;;;;;1.90;99.90;;;;;;5077103;28;19908;-85
2022/04/03 02:04:57;;;;;;;;;;;2.20;99.90;;;;;;5095362;28;19908;-84
2022/04/03 02:07:23;;;;;;;;;;;2.20;99.90;;;;;;5077012;28;19909;-83
2022/04/03 02:09:48;;;;;;;;;;;2.10;99.90;;;;;;5095118;28;19915;-86
2022/04/03 02:12:14;;;;;;;;;;;1.90;99.90;;;;;;5095230;28;19960;-84
2022/04/03 02:14:39;;;;;;;;;;;1.90;99.90;;;;;;5094998;28;19916;-87
2022/04/03 02:17:05;;;;;;;;;;;2.00;99.90;;;;;;5095164;28;20290;-84
2022/04/03 02:19:31;;;;;;;;;;;1.90;99.90;;;;;;5094463;28;19920;-84
2022/04/03 02:21:56;;;;;;;;;;;1.90;99.90;;;;;;5076630;28;19962;-83
2022/04/03 02:24:22;;;;;;;;;;;2.20;99.90;;;;;;5095025;28;19908;-83
2022/04/03 02:26:47;;;;;;;;;;;2.30;99.90;;;;;;5094973;28;19909;-83
2022/04/03 02:29:13;;;;;;;;;;;2.50;99.90;;;;;;5094779;28;19908;-86
2022/04/03 02:31:39;;;;;;;;;;;2.50;99.90;;;;;;5076459;28;19909;-83
2022/04/03 02:34:05;;;;;;;;;;;2.70;99.90;;;;;;5094658;28;19912;-84
2022/04/03 02:36:31;;;;;;;;;;;2.50;99.90;;;;;;5076410;28;19943;-84
2022/04/03 02:38:57;;;;;;;;;;;2.30;99.90;;;;;;5076283;28;19958;-85
2022/04/03 02:41:22;;;;;;;;;;;2.20;99.90;;;;;;5094561;28;19908;-84
2022/04/03 02:43:48;;;;;;;;;;;2.30;99.90;;;;;;5076252;28;19931;-83
2022/04/03 02:46:13;;;;;;;;;;;2.50;99.90;;;;;;5094453;28;19908;-84
2022/04/03 02:48:39;;;;;;;;;;;2.50;99.90;;;;;;5094400;28;19916;-85
2022/04/03 02:51:05;;;;;;;;;;;2.60;99.90;;;;;;5094380;28;19919;-86
2022/04/03 02:53:31;;;;;;;;;;;2.60;99.90;;;;;;5076125;28;19916;-85
2022/04/03 02:55:56;;;;;;;;;;;2.70;99.90;;;;;;5094213;28;19916;-86
2022/04/03 02:58:22;;;;;;;;;;;2.70;99.90;;;;;;5094163;28;19915;-83
2022/04/03 03:00:47;;;;;;;;;;;2.60;99.90;;;;;;5094396;28;19954;-85
2022/04/03 03:03:13;;;;;;;;;;;2.40;99.90;;;;;;5094164;28;19959;-84
2022/04/03 03:05:41;;;;;;;;;;;2.30;99.90;;;;;;5094087;28;19912;-84
2022/04/03 03:08:07;;;;;;;;;;;2.30;99.90;;;;;;5075905;28;20422;-85
2022/04/03 03:10:32;;;;;;;;;;;2.00;99.90;;;;;;5094052;28;19908;-85
2022/04/03 03:12:58;;;;;;;;;;;1.80;99.90;;;;;;5075839;28;19908;-83
2022/04/03 03:15:24;;;;;;;;;;;1.70;99.90;;;;;;5094041;28;19908;-83
2022/04/03 03:17:50;;;;;;;;;;;1.60;99.90;;;;;;5075654;28;19908;-85
2022/04/03 03:20:16;;;;;;;;;;;1.60;99.90;;;;;;5075529;28;19919;-84
2022/04/03 03:22:42;;;;;;;;;;;1.60;99.90;;;;;;5094464;28;19931;-86
2022/04/03 03:25:08;;;;;;;;;;;1.70;99.90;;;;;;5093858;28;20391;-85
2022/04/03 03:27:39;;;;;;;;;;;1.90;99.90;;;;;;5075585;28;19912;-84
2022/04/03 03:30:05;;;;;;;;;;;1.90;99.90;;;;;;5093653;28;19916;-84
2022/04/03 03:32:32;;;;;;;;;;;1.90;99.90;;;;;;5093755;28;19956;-84
2022/04/03 03:34:58;;;;;;;;;;;1.70;99.90;;;;;;5075659;28;19908;-86
2022/04/03 03:37:24;;;;;;;;;;;1.60;99.90;;;;;;5093790;28;19974;-85
2022/04/03 03:39:49;;;;;;;;;;;1.50;99.90;;;;;;5093783;28;20049;-85
2022/04/03 03:42:15;;;;;;;;;;;1.60;99.90;;;;;;5093716;28;19944;-84
2022/04/03 03:44:41;;;;;;;;;;;1.80;99.90;;;;;;5075481;28;19958;-84
2022/04/03 03:47:07;;;;;;;;;;;1.90;99.90;;;;;;5093955;28;19915;-83
2022/04/03 03:49:33;;;;;;;;;;;1.90;99.90;;;;;;5093625;28;19908;-86
2022/04/03 03:51:59;;;;;;;;;;;2.10;99.90;;;;;;5093583;28;19944;-84
2022/04/03 03:54:25;;;;;;;;;;;2.10;99.90;;;;;;5093472;28;19951;-86
2022/04/03 03:56:51;;;;;;;;;;;2.10;99.90;;;;;;5075429;28;20355;-86
2022/04/03 03:59:16;;;;;;;;;;;2.30;99.90;;;;;;5093449;28;19912;-84
2022/04/03 04:01:42;;;;;;;;;;;2.20;99.90;;;;;;5092219;28;19908;-84
2022/04/03 04:04:07;;;;;;;;;;;2.30;99.90;;;;;;5093443;28;19908;-84
2022/04/03 04:06:33;;;;;;;;;;;2.60;99.90;;;;;;5075309;28;19908;-83
2022/04/03 04:08:59;;;;;;;;;;;2.70;99.90;;;;;;5092449;28;20276;-83
2022/04/03 04:11:24;;;;;;;;;;;2.70;99.90;;;;;;5093360;28;19908;-85
2022/04/03 04:13:50;;;;;;;;;;;2.30;99.90;;;;;;5093368;28;19955;-82
2022/04/03 04:16:15;;;;;;;;;;;2.10;99.90;;;;;;5093332;28;19916;-84
2022/04/03 04:18:42;;;;;;;;;;;2.20;99.90;;;;;;5093082;28;19920;-85
2022/04/03 04:21:08;;;;;;;;;;;2.30;99.90;;;;;;5093494;28;19931;-87
2022/04/03 04:23:33;;;;;;;;;;;2.30;99.90;;;;;;5093319;28;20368;-84
2022/04/03 04:25:59;;;;;;;;;;;2.40;99.90;;;;;;5093523;28;20003;-86
2022/04/03 04:28:25;;;;;;;;;;;2.50;99.90;;;;;;5075109;28;19908;-84
2022/04/03 04:30:50;;;;;;;;;;;2.50;99.90;;;;;;5093423;28;19908;-85
2022/04/03 04:33:16;;;;;;;;;;;2.70;99.90;;;;;;5075147;28;19908;-84
2022/04/03 04:35:42;;;;;;;;;;;2.80;99.90;;;;;;5093204;28;19908;-83
2022/04/03 04:38:07;;;;;;;;;;;2.50;99.90;;;;;;5093078;28;19909;-84
2022/04/03 04:40:33;;;;;;;;;;;2.30;99.90;;;;;;5075886;28;19931;-82
2022/04/03 04:42:59;;;;;;;;;;;2.20;99.90;;;;;;5078607;28;19914;-84
2022/04/03 04:45:28;;;;;;;;;;;2.50;99.90;;;;;;5078549;28;20323;-86
2022/04/03 04:48:02;;;;;;;;;;;2.50;99.90;;;;;;5078553;28;20006;-83
2022/04/03 04:50:29;;;;;;;;;;;2.30;99.90;;;;;;5096858;28;20287;-86
2022/04/03 04:52:56;;;;;;;;;;;2.20;99.90;;;;;;5096729;28;19908;-84
2022/04/03 04:55:22;;;;;;;;;;;2.10;99.90;;;;;;5096505;28;20053;-85
2022/04/03 04:57:54;;;;;;;;;;;2.10;99.90;;;;;;5078292;28;19955;-86
2022/04/03 05:00:21;;;;;;;;;;;2.10;99.90;;;;;;5096509;28;20053;-84
2022/04/03 05:02:47;;;;;;;;;;;2.10;99.90;;;;;;5078547;28;20331;-86
2022/04/03 05:05:14;;;;;;;;;;;2.20;99.90;;;;;;5096408;28;19943;-86
2022/04/03 05:07:40;;;;;;;;;;;2.20;99.90;;;;;;5096326;28;19912;-83
2022/04/03 05:10:06;;;;;;;;;;;2.30;99.90;;;;;;5078139;28;19911;-86
2022/04/03 05:12:32;;;;;;;;;;;2.40;99.90;;;;;;5096457;28;19908;-84
2022/04/03 05:14:58;;;;;;;;;;;2.40;99.90;;;;;;5078070;28;19931;-83
2022/04/03 05:17:23;;;;;;;;;;;2.30;99.90;;;;;;5077886;28;19912;-83
2022/04/03 05:19:49;;;;;;;;;;;2.30;99.90;;;;;;5095868;28;19931;-86
2022/04/03 05:22:14;;;;;;;;;;;2.10;99.90;;;;;;5096058;28;20281;-85
2022/04/03 05:24:40;;;;;;;;;;;2.10;99.90;;;;;;5096108;28;19915;-85
2022/04/03 05:27:05;;;;;;;;;;;1.90;99.90;;;;;;5077799;28;19912;-84
2022/04/03 05:29:34;;;;;;;;;;;1.90;99.90;;;;;;5095920;28;19915;-85
2022/04/03 05:32:00;;;;;;;;;;;2.00;99.90;;;;;;5095864;28;19908;-85
2022/04/03 05:34:25;;;;;;;;;;;2.10;99.90;;;;;;5077669;28;19919;-84
2022/04/03 05:36:51;;;;;;;;;;;2.10;99.90;;;;;;5077636;28;19931;-86
2022/04/03 05:39:17;;;;;;;;;;;2.20;99.90;;;;;;5077512;28;19920;-83
2022/04/03 05:41:43;;;;;;;;;;;2.20;99.90;;;;;;5095771;28;19915;-86
2022/04/03 05:44:09;;;;;;;;;;;2.20;99.90;;;;;;5095602;28;19909;-83
2022/04/03 05:46:34;;;;;;;;;;;1.90;99.90;;;;;;5095908;28;19954;-86
2022/04/03 05:49:00;;;;;;;;;;;1.80;99.90;;;;;;5077356;28;19944;-82
2022/04/03 05:51:26;;;;;;;;;;;1.90;99.90;;;;;;5076947;28;19938;-83
2022/04/03 05:53:52;;;;;;;;;;;2.00;99.90;;;;;;5095445;28;19997;-85
2022/04/03 05:56:17;;;;;;;;;;;2.10;99.90;;;;;;5095396;28;19908;-84
2022/04/03 05:58:43;;;;;;;;;;;2.10;99.90;;;;;;5095247;28;20379;-83
2022/04/03 06:01:08;;;;;;;;;;;1.80;99.90;;;;;;5095603;28;19955;-87
2022/04/03 06:03:34;;;;;;;;;;;1.70;99.90;;;;;;5095429;28;19908;-86
2022/04/03 06:06:00;;;;;;;;;;;1.90;99.90;;;;;;5077054;28;19947;-85
2022/04/03 06:08:26;;;;;;;;;;;2.10;99.90;;;;;;5095155;28;19912;-84
2022/04/03 06:10:51;;;;;;;;;;;2.30;99.90;;;;;;5077200;28;20280;-85
2022/04/03 06:13:17;;;;;;;;;;;2.30;99.90;;;;;;5095424;28;19908;-85
2022/04/03 06:15:45;;;;;;;;;;;2.30;99.90;;;;;;5095156;28;19908;-85
2022/04/03 06:18:14;;;;;;;;;;;2.50;99.90;;;;;;5094814;28;19916;-84
2022/04/03 06:20:40;;;;;;;;;;;2.80;99.90;;;;;;5076782;28;19912;-84
2022/04/03 06:23:16;;;;;;;;;;;3.20;99.90;;;;;;5095059;28;19919;-83
2022/04/03 06:25:42;;;;;;;;;;;3.30;99.90;;;;;;5094952;28;19908;-85
2022/04/03 06:28:08;;;;;;;;;;;3.70;99.90;;;;;;5094844;28;19965;-82
2022/04/03 06:30:34;;;;;;;;;;;4.30;99.90;;;;;;5076452;28;19915;-82
2022/04/03 06:33:00;;;;;;;;;;;4.80;99.90;;;;;;5076485;28;19987;-82
2022/04/03 06:35:25;;;;;;;;;;;5.00;98.50;;;;;;5094807;28;20368;-83
2022/04/03 06:37:51;;;;;;;;;;;5.10;98.20;;;;;;5094652;28;19944;-84
2022/04/03 06:40:17;;;;;;;;;;;5.40;98.20;;;;;;5094498;28;20011;-82
2022/04/03 06:42:42;;;;;;;;;;;6.40;97.10;;;;;;5094953;28;19908;-83
2022/04/03 06:45:09;;;;;;;;;;;6.90;95.50;;;;;;5094459;28;19908;-82
2022/04/03 06:47:35;;;;;;;;;;;7.70;92.70;;;;;;5076184;28;19915;-84
2022/04/03 06:50:01;;;;;;;;;;;8.40;91.20;;;;;;5076211;28;19908;-84
2022/04/03 06:52:27;;;;;;;;;;;9.30;86.70;;;;;;5094315;28;19915;-83
2022/04/03 06:54:52;;;;;;;;;;;9.00;82.40;;;;;;5094367;28;19915;-84
2022/04/03 06:57:18;;;;;;;;;;;9.40;82.30;;;;;;5094257;28;19919;-84
2022/04/03 06:59:44;;;;;;;;;;;10.00;79.30;;;;;;5094367;28;19968;-84
2022/04/03 07:02:10;;;;;;;;;;;10.30;77.40;;;;;;5075992;28;20263;-84
2022/04/03 07:04:36;;;;;;;;;;;10.60;75.40;;;;;;5093476;28;19957;-82
2022/04/03 07:07:02;;;;;;;;;;;10.50;74.60;;;;;;5075935;28;19915;-84
2022/04/03 07:09:28;;;;;;;;;;;10.70;74.20;;;;;;5094268;28;19912;-84
2022/04/03 07:11:53;;;;;;;;;;;11.00;73.00;;;;;;5093998;28;19908;-82
2022/04/03 07:14:19;;;;;;;;;;;11.20;72.90;;;;;;5094032;28;19915;-83
2022/04/03 07:16:44;;;;;;;;;;;11.40;72.60;;;;;;5093953;28;20456;-84
2022/04/03 07:19:11;;;;;;;;;;;11.60;71.80;;;;;;5072200;28;19920;-83
2022/04/03 07:21:36;;;;;;;;;;;11.50;72.10;;;;;;5072487;28;19932;-83
2022/04/03 07:24:02;;;;;;;;;;;11.70;71.50;;;;;;5073700;28;20365;-84
2022/04/03 07:26:28;;;;;;;;;;;11.50;71.30;;;;;;5072373;28;19965;-84
2022/04/03 07:28:53;;;;;;;;;;;11.20;72.80;;;;;;5074036;28;20062;-84
2022/04/03 07:31:19;;;;;;;;;;;11.30;73.10;;;;;;5073595;28;19909;-85
2022/04/03 07:33:46;;;;;;;;;;;11.00;74.00;;;;;;5073660;28;19995;-85
2022/04/03 07:36:12;;;;;;;;;;;10.70;75.00;;;;;;5073948;28;19912;-84
2022/04/03 07:38:37;;;;;;;;;;;10.20;75.50;;;;;;5073500;28;19967;-82
2022/04/03 07:41:03;;;;;;;;;;;9.80;76.10;;;;;;5073488;28;19999;-82
2022/04/03 07:43:28;;;;;;;;;;;9.90;76.20;;;;;;5072165;28;20373;-84
2022/04/03 07:45:54;;;;;;;;;;;10.20;74.70;;;;;;5072167;28;19959;-83
2022/04/03 07:48:20;;;;;;;;;;;11.10;73.80;;;;;;5073633;28;19909;-85
2022/04/03 07:50:46;;;;;;;;;;;12.20;70.00;;;;;;5073426;28;19913;-84
2022/04/03 07:53:12;;;;;;;;;;;13.50;66.80;;;;;;5073525;28;20273;-84
2022/04/03 07:55:37;;;;;;;;;;;14.20;63.10;;;;;;5072006;28;19908;-83
2022/04/03 07:58:03;;;;;;;;;;;14.90;59.30;;;;;;5073573;28;19916;-83
2022/04/03 08:00:29;;;;;;;;;;;15.90;57.60;;;;;;5072680;28;20408;-84
2022/04/03 08:02:54;;;;;;;;;;;16.30;56.00;;;;;;5072042;28;19909;-83
2022/04/03 08:05:20;;;;;;;;;;;16.70;54.00;;;;;;5071983;28;19909;-83
2022/04/03 08:07:47;;;;;;;;;;;17.50;52.70;;;;;;5072023;28;20043;-83
2022/04/03 08:10:14;;;;;;;;;;;18.00;50.00;;;;;;5073280;28;19908;-84
2022/04/03 08:12:41;;;;;;;;;;;17.70;50.20;;;;;;5073413;28;19909;-83
2022/04/03 08:15:07;;;;;;;;;;;18.50;47.70;;;;;;5073722;28;19909;-84
2022/04/03 08:17:32;;;;;;;;;;;18.50;47.30;;;;;;5075690;28;20357;-84
2022/04/03 08:19:58;;;;;;;;;;;19.20;45.60;;;;;;5079001;28;19916;-83
2022/04/03 08:22:24;;;;;;;;;;;20.00;44.90;;;;;;5095928;28;20268;-84
2022/04/03 08:24:50;;;;;;;;;;;20.80;42.80;;;;;;5097480;28;19915;-84
2022/04/03 08:27:16;;;;;;;;;;;21.00;41.60;;;;;;5095870;28;20383;-82
2022/04/03 08:29:42;;;;;;;;;;;21.00;41.40;;;;;;5078922;28;19944;-83
2022/04/03 08:32:07;;;;;;;;;;;20.80;41.10;;;;;;5097265;28;19908;-84
2022/04/03 08:34:33;;;;;;;;;;;21.30;41.20;;;;;;5097232;28;19912;-83
2022/04/03 08:36:59;;;;;;;;;;;20.80;40.90;;;;;;5097026;28;19908;-84
2022/04/03 08:39:25;;;;;;;;;;;22.50;40.40;;;;;;5096818;28;20045;-83
2022/04/03 08:41:51;;;;;;;;;;;22.40;39.30;;;;;;5078641;28;20428;-84
2022/04/03 08:44:18;;;;;;;;;;;22.90;38.70;;;;;;5096984;28;19998;-84
2022/04/03 08:46:48;;;;;;;;;;;23.40;37.80;;;;;;5078578;28;19995;-83
2022/04/03 08:49:15;;;;;;;;;;;23.50;37.60;;;;;;5078490;28;19962;-83
2022/04/03 08:51:41;;;;;;;;;;;23.80;38.00;;;;;;5078460;28;19908;-84
2022/04/03 08:54:07;;;;;;;;;;;24.10;36.60;;;;;;5078433;28;19908;-83
2022/04/03 08:56:33;;;;;;;;;;;24.40;37.20;;;;;;5096624;28;20007;-83
2022/04/03 08:58:59;;;;;;;;;;;24.20;35.90;;;;;;5096440;28;20015;-84
2022/04/03 09:01:24;;;;;;;;;;;24.50;35.40;;;;;;5096492;28;19912;-83
2022/04/03 09:03:50;;;;;;;;;;;23.70;35.50;;;;;;5096404;28;20322;-83
2022/04/03 09:06:17;;;;;;;;;;;24.50;35.30;;;;;;5078232;28;20424;-84
2022/04/03 09:08:43;;;;;;;;;;;23.70;35.60;;;;;;5096362;28;19977;-84
2022/04/03 09:11:09;;;;;;;;;;;22.70;36.00;;;;;;5078141;28;20368;-84
2022/04/03 09:13:36;;;;;;;;;;;22.40;36.30;;;;;;5078366;28;19909;-83
2022/04/03 09:16:02;;;;;;;;;;;22.60;36.90;;;;;;5096227;28;19908;-84
2022/04/03 09:18:43;;;;;;;;;;;24.70;35.20;;;;;;5095898;28;19928;-84
2022/04/03 09:21:15;;;;;;;;;;;25.40;35.10;;;;;;5096348;28;19908;-84
2022/04/03 09:24:00;;;;;;;;;;;26.60;33.80;;;;;;5096160;28;19909;-84
2022/04/03 09:26:25;;;;;;;;;;;26.60;33.80;;;;;;5095227;28;19944;-84
2022/04/03 09:29:04;;;;;;;;;;;26.70;33.60;;;;;;5077831;28;19930;-83
2022/04/03 09:31:30;;;;;;;;;;;28.00;31.60;;;;;;5096036;28;19915;-84
2022/04/03 09:34:00;;;;;;;;;;;28.00;31.90;;;;;;5077685;28;19912;-83
2022/04/03 09:36:29;;;;;;;;;;;27.60;32.20;;;;;;5077625;28;19991;-84
2022/04/03 09:39:03;;;;;;;;;;;29.30;31.30;;;;;;5095810;28;19912;-85
2022/04/03 09:41:29;;;;;;;;;;;29.20;30.80;;;;;;5077314;28;19908;-84
2022/04/03 09:43:54;;;;;;;;;;;27.70;32.00;;;;;;5095867;28;19915;-85
2022/04/03 09:46:23;;;;;;;;;;;29.30;31.20;;;;;;5095967;28;20408;-84
2022/04/03 09:48:49;;;;;;;;;;;29.10;30.80;;;;;;5094313;28;20338;-84
2022/04/03 09:51:19;;;;;;;;;;;29.00;30.00;;;;;;5095642;28;20010;-84
2022/04/03 09:53:45;;;;;;;;;;;29.30;30.40;;;;;;5077263;28;19915;-84
2022/04/03 09:56:11;;;;;;;;;;;32.10;29.60;;;;;;5077301;28;19908;-84
2022/04/03 09:58:38;;;;;;;;;;;31.40;28.80;;;;;;5077074;28;19965;-83
2022/04/03 10:01:19;;;;;;;;;;;32.70;29.10;;;;;;5095349;28;19961;-84
2022/04/03 10:03:45;;;;;;;;;;;33.20;28.00;;;;;;5095340;28;19920;-83
2022/04/03 10:06:11;;;;;;;;;;;31.20;29.10;;;;;;5095251;28;19908;-83
2022/04/03 10:08:37;;;;;;;;;;;31.30;29.40;;;;;;5095524;28;20452;-84
2022/04/03 10:11:03;;;;;;;;;;;30.90;29.30;;;;;;5095145;28;19908;-83
2022/04/03 10:13:28;;;;;;;;;;;33.40;28.90;;;;;;5095120;28;19915;-84
2022/04/03 10:15:54;;;;;;;;;;;27.30;28.70;;;;;;5095058;28;20042;-83
2022/04/03 10:18:20;;;;;;;;;;;29.40;29.40;;;;;;5094710;28;20006;-85
2022/04/03 10:20:46;;;;;;;;;;;29.70;29.10;;;;;;5076776;28;19912;-83
2022/04/03 10:23:12;;;;;;;;;;;27.20;29.60;;;;;;5094872;28;19908;-85
2022/04/03 10:25:41;;;;;;;;;;;27.00;31.00;;;;;;5076604;28;20372;-84
2022/04/03 10:28:08;;;;;;;;;;;22.80;30.40;;;;;;5095257;28;20396;-83
2022/04/03 10:30:35;;;;;;;;;;;23.40;31.30;;;;;;5076612;28;19908;-85
2022/04/03 10:33:01;;;;;;;;;;;24.10;32.70;;;;;;5094731;28;19994;-83
2022/04/03 10:35:26;;;;;;;;;;;25.20;29.60;;;;;;5076445;28;20010;-85
2022/04/03 10:38:00;;;;;;;;;;;25.70;30.00;;;;;;5093692;28;19957;-83
2022/04/03 10:40:29;;;;;;;;;;;27.20;29.80;;;;;;5094519;28;19955;-84
2022/04/03 10:42:58;;;;;;;;;;;30.30;28.40;;;;;;5076332;28;19908;-84
2022/04/03 10:45:30;;;;;;;;;;;32.00;28.90;;;;;;5076326;28;19999;-84
2022/04/03 10:48:14;;;;;;;;;;;34.50;28.10;;;;;;5094656;28;19912;-83
2022/04/03 10:50:55;;;;;;;;;;;28.50;28.20;;;;;;5094368;28;19940;-84
2022/04/03 10:53:25;;;;;;;;;;;25.10;30.00;;;;;;5094384;28;20425;-83
2022/04/03 10:55:55;;;;;;;;;;;22.80;31.40;;;;;;5094331;28;19934;-84
2022/04/03 10:58:21;;;;;;;;;;;21.20;33.20;;;;;;5094391;28;19943;-84
2022/04/03 11:00:48;;;;;;;;;;;19.90;34.40;;;;;;5094249;28;19912;-84
2022/04/03 11:03:13;;;;;;;;;;;22.10;34.70;;;;;;5094224;28;19944;-85
2022/04/03 11:05:39;;;;;;;;;;;26.00;30.70;;;;;;5075958;28;19950;-85
2022/04/03 11:08:04;;;;;;;;;;;22.60;31.70;;;;;;5093999;28;19908;-83
2022/04/03 11:10:48;;;;;;;;;;;19.50;35.70;;;;;;5094078;28;20355;-83
2022/04/03 11:13:17;;;;;;;;;;;18.80;37.00;;;;;;5094007;28;20276;-82
2022/04/03 11:15:46;;;;;;;;;;;17.70;38.60;;;;;;5075812;28;19908;-83
2022/04/03 11:18:30;;;;;;;;;;;18.70;37.80;;;;;;5072248;28;19920;-85
2022/04/03 11:21:11;;;;;;;;;;;18.50;38.10;;;;;;5073910;28;19936;-84
2022/04/03 11:23:40;;;;;;;;;;;20.90;36.60;;;;;;5072346;28;20301;-84
2022/04/03 11:26:07;;;;;;;;;;;24.00;34.50;;;;;;5073670;28;20383;-83
2022/04/03 11:28:34;;;;;;;;;;;27.90;31.60;;;;;;5072319;28;19908;-85
2022/04/03 11:31:00;;;;;;;;;;;30.60;30.10;;;;;;5073599;28;20365;-84
2022/04/03 11:33:27;;;;;;;;;;;26.60;29.70;;;;;;5072221;28;20304;-84
2022/04/03 11:35:53;;;;;;;;;;;23.20;32.30;;;;;;5072272;28;19908;-83
2022/04/03 11:38:19;;;;;;;;;;;21.80;34.40;;;;;;5072177;28;20047;-84
2022/04/03 11:40:47;;;;;;;;;;;19.70;35.10;;;;;;5073396;28;20003;-82
2022/04/03 11:43:13;;;;;;;;;;;18.70;36.70;;;;;;5073666;28;19916;-84
2022/04/03 11:45:39;;;;;;;;;;;18.10;37.10;;;;;;5073657;28;19909;-85
2022/04/03 11:48:18;;;;;;;;;;;17.20;38.60;;;;;;5073666;28;19916;-83
2022/04/03 11:50:44;;;;;;;;;;;17.20;39.10;;;;;;5076971;28;19908;-83
2022/04/03 11:53:10;;;;;;;;;;;22.70;36.40;;;;;;5077600;28;19909;-84
2022/04/03 11:55:36;;;;;;;;;;;28.70;31.30;;;;;;5077424;28;19919;-84
2022/04/03 11:58:04;;;;;;;;;;;27.30;29.70;;;;;;5077581;28;19908;-84
2022/04/03 12:00:33;;;;;;;;;;;23.30;32.00;;;;;;5077383;28;19913;-84
2022/04/03 12:03:00;;;;;;;;;;;21.90;34.50;;;;;;5077583;28;19915;-84
2022/04/03 12:05:26;;;;;;;;;;;19.20;36.00;;;;;;5077616;28;19908;-82
2022/04/03 12:07:51;;;;;;;;;;;18.30;37.40;;;;;;5075961;28;19987;-84
2022/04/03 12:10:26;;;;;;;;;;;17.40;37.70;;;;;;5077276;28;19931;-83
2022/04/03 12:12:54;;;;;;;;;;;16.90;38.80;;;;;;5077144;28;19909;-82
2022/04/03 12:15:21;;;;;;;;;;;16.60;38.80;;;;;;5077284;28;19908;-85
2022/04/03 12:17:53;;;;;;;;;;;20.00;39.80;;;;;;5079135;28;19958;-84
2022/04/03 12:20:19;;;;;;;;;;;25.60;30.60;;;;;;5097332;28;19912;-83
2022/04/03 12:22:48;;;;;;;;;;;22.40;32.90;;;;;;5097300;28;19908;-84
2022/04/03 12:25:14;;;;;;;;;;;21.30;33.70;;;;;;5097208;28;19909;-84
2022/04/03 12:27:39;;;;;;;;;;;19.10;36.20;;;;;;5097140;28;19908;-83
2022/04/03 12:30:07;;;;;;;;;;;18.10;37.10;;;;;;5097347;28;19908;-84
2022/04/03 12:32:35;;;;;;;;;;;17.90;37.90;;;;;;5097132;28;19998;-83
2022/04/03 12:35:01;;;;;;;;;;;17.10;38.40;;;;;;5078767;28;19912;-82
2022/04/03 12:37:31;;;;;;;;;;;16.30;39.50;;;;;;5097152;28;20286;-84
2022/04/03 12:39:59;;;;;;;;;;;16.00;40.70;;;;;;5097238;28;19916;-85
2022/04/03 12:42:26;;;;;;;;;;;15.80;41.60;;;;;;5096901;28;19916;-83
2022/04/03 12:44:53;;;;;;;;;;;20.40;41.00;;;;;;5096798;28;19908;-84
2022/04/03 12:47:35;;;;;;;;;;;28.90;31.70;;;;;;5097060;28;19912;-84
2022/04/03 12:50:04;;;;;;;;;;;27.10;30.30;;;;;;5096743;28;19916;-83
2022/04/03 12:52:40;;;;;;;;;;;23.00;31.50;;;;;;5078507;28;19915;-85
2022/04/03 12:55:21;;;;;;;;;;;20.90;33.80;;;;;;5078426;28;20295;-83
2022/04/03 12:58:25;;;;;;;;;;;18.80;36.40;;;;;;5096557;28;19955;-84
2022/04/03 13:00:55;;;;;;;;;;;18.00;36.30;;;;;;5075117;28;19919;-83
2022/04/03 13:03:25;;;;;;;;;;;17.90;37.30;;;;;;5096700;28;19999;-83
2022/04/03 13:05:54;;;;;;;;;;;17.40;38.40;;;;;;5096431;28;20369;-82
2022/04/03 13:08:19;;;;;;;;;;;16.70;40.00;;;;;;5096433;28;19908;-82
2022/04/03 13:11:03;;;;;;;;;;;17.10;39.50;;;;;;5096311;28;19909;-83
2022/04/03 13:13:29;;;;;;;;;;;18.30;38.80;;;;;;5077761;28;19915;-85
2022/04/03 13:15:55;;;;;;;;;;;23.10;37.40;;;;;;5078178;28;19908;-83
2022/04/03 13:18:21;;;;;;;;;;;22.80;34.10;;;;;;5074449;28;19967;-83
2022/04/03 13:20:51;;;;;;;;;;;21.30;35.60;;;;;;5074583;28;19916;-84
2022/04/03 13:23:17;;;;;;;;;;;19.60;38.90;;;;;;5075872;28;19916;-84
2022/04/03 13:25:42;;;;;;;;;;;21.30;40.00;;;;;;5075867;28;19970;-84
2022/04/03 13:28:08;;;;;;;;;;;29.90;32.70;;;;;;5074532;28;20253;-83
2022/04/03 13:30:34;;;;;;;;;;;32.60;30.80;;;;;;5075799;28;19909;-84
2022/04/03 13:33:00;;;;;;;;;;;36.60;29.50;;;;;;5074426;28;19908;-84
2022/04/03 13:35:25;;;;;;;;;;;29.50;29.80;;;;;;5075609;28;20373;-83
2022/04/03 13:37:51;;;;;;;;;;;25.00;32.10;;;;;;5075677;28;19915;-83
2022/04/03 13:40:17;;;;;;;;;;;23.00;35.40;;;;;;5075618;28;20003;-82
2022/04/03 13:42:43;;;;;;;;;;;21.70;34.50;;;;;;5075521;28;19912;-84
2022/04/03 13:45:09;;;;;;;;;;;23.60;33.80;;;;;;5075443;28;19908;-84
2022/04/03 13:47:34;;;;;;;;;;;23.20;33.00;;;;;;5074163;28;20009;-83
2022/04/03 13:50:00;;;;;;;;;;;26.70;33.20;;;;;;5075574;28;19999;-84
2022/04/03 13:52:25;;;;;;;;;;;28.70;31.90;;;;;;5075465;28;19912;-84
2022/04/03 13:54:51;;;;;;;;;;;30.20;29.50;;;;;;5075207;28;19915;-83
2022/04/03 13:57:17;;;;;;;;;;;24.10;31.00;;;;;;5073920;28;20391;-85
2022/04/03 13:59:42;;;;;;;;;;;21.20;47.30;;;;;;5073834;28;19941;-83
2022/04/03 14:02:08;;;;;;;;;;;19.20;43.00;;;;;;5075226;28;19996;-85
2022/04/03 14:04:33;;;;;;;;;;;18.30;44.90;;;;;;5073826;28;19915;-83
2022/04/03 14:06:59;;;;;;;;;;;17.60;44.70;;;;;;5075038;28;19909;-83
2022/04/03 14:09:24;;;;;;;;;;;17.70;43.70;;;;;;5074954;28;19917;-83
2022/04/03 14:11:51;;;;;;;;;;;17.60;43.10;;;;;;5074765;28;19909;-84
2022/04/03 14:14:16;;;;;;;;;;;17.00;42.70;;;;;;5075103;28;19971;-85
2022/04/03 14:16:42;;;;;;;;;;;17.10;41.20;;;;;;5073521;28;20373;-84
2022/04/03 14:19:07;;;;;;;;;;;21.90;38.50;;;;;;5087834;28;19920;-84
2022/04/03 14:21:33;;;;;;;;;;;26.90;43.40;;;;;;5095073;28;19908;-85